createdAt,value
2023-12-01T00:01:55.988Z,104.40
2023-12-01T00:04:23.249Z,104.72
2023-12-01T00:06:50.519Z,104.65
2023-12-01T00:09:17.837Z,95.47
2023-12-01T00:11:45.200Z,143.90
2023-12-01T00:14:12.596Z,127.95
2023-12-01T00:16:39.876Z,112.28
2023-12-01T00:19:07.210Z,228.07
2023-12-01T00:21:34.576Z,169.15
2023-12-01T00:24:03.623Z,101.25
2023-12-01T00:26:30.882Z,98.07
2023-12-01T00:28:58.183Z,85.68
2023-12-01T00:31:26.004Z,94.28
2023-12-01T00:33:53.304Z,87.30
2023-12-01T00:36:20.584Z,93.05
2023-12-01T00:38:47.875Z,97.43
2023-12-01T00:41:15.488Z,98.22
2023-12-01T00:43:45.239Z,95.93
2023-12-01T00:46:12.540Z,92.30
2023-12-01T00:48:39.870Z,94.60
2023-12-01T00:51:15.002Z,89.68
2023-12-01T00:53:42.185Z,88.45
2023-12-01T00:56:10.547Z,95.80
2023-12-01T01:01:22.545Z,95.88
2023-12-01T01:03:49.812Z,97.55
2023-12-01T01:06:17.171Z,102.30
2023-12-01T01:08:44.458Z,97.45
2023-12-01T01:11:11.630Z,104.07
2023-12-01T01:13:38.942Z,97.38
2023-12-01T01:16:06.905Z,96.97
2023-12-01T01:18:34.314Z,97.60
2023-12-01T01:21:01.608Z,97.03
2023-12-01T01:23:28.911Z,85.30
2023-12-01T01:25:56.164Z,99.30
2023-12-01T01:28:23.470Z,84.70
2023-12-01T01:30:50.813Z,87.60
2023-12-01T01:33:18.085Z,87.90
2023-12-01T01:35:46.673Z,90.35
2023-12-01T01:38:13.931Z,76.85
2023-12-01T01:40:41.283Z,75.00
2023-12-01T01:43:08.527Z,77.88
2023-12-01T01:45:35.832Z,76.45
2023-12-01T01:48:03.363Z,79.20
2023-12-01T01:50:30.725Z,73.85
2023-12-01T01:52:58.121Z,73.30
2023-12-01T01:55:25.605Z,66.38
2023-12-01T01:57:55.334Z,73.75
2023-12-01T02:00:22.576Z,69.95
2023-12-01T02:02:50.102Z,73.72
2023-12-01T02:05:17.347Z,74.93
2023-12-01T02:07:45.203Z,70.07
2023-12-01T02:10:17.412Z,69.60
2023-12-01T02:12:46.731Z,71.85
2023-12-01T02:15:14.490Z,69.50
2023-12-01T02:17:42.800Z,70.07
2023-12-01T02:20:16.951Z,68.45
2023-12-01T02:22:47.504Z,67.53
2023-12-01T02:25:15.624Z,68.03
2023-12-01T02:27:42.876Z,65.82
2023-12-01T02:30:11.705Z,66.57
2023-12-01T02:32:40.922Z,51.88
2023-12-01T02:35:11.201Z,52.47
2023-12-01T02:40:17.028Z,64.00
2023-12-01T02:45:34.286Z,66.22
2023-12-01T02:48:01.885Z,64.53
2023-12-01T02:50:29.141Z,57.30
2023-12-01T02:52:56.402Z,54.72
2023-12-01T02:55:23.594Z,46.97
2023-12-01T02:57:50.854Z,39.30
2023-12-01T03:00:18.624Z,35.80
2023-12-01T03:02:46.395Z,32.45
2023-12-01T03:05:13.665Z,34.83
2023-12-01T03:07:59.276Z,35.95
2023-12-01T03:10:26.516Z,37.13
2023-12-01T03:12:53.696Z,39.75
2023-12-01T03:15:21.488Z,44.67
2023-12-01T03:17:49.802Z,51.20
2023-12-01T03:20:36.030Z,48.22
2023-12-01T03:23:03.613Z,58.17
2023-12-01T03:25:30.888Z,54.65
2023-12-01T03:27:58.178Z,60.15
2023-12-01T03:30:25.487Z,57.45
2023-12-01T03:32:54.687Z,60.55
2023-12-01T03:35:26.021Z,67.53
2023-12-01T03:37:58.045Z,66.50
2023-12-01T03:40:27.224Z,58.80
2023-12-01T03:42:54.912Z,62.30
2023-12-01T03:45:22.303Z,66.70
2023-12-01T03:47:51.861Z,69.50
2023-12-01T03:50:22.853Z,66.13
2023-12-01T03:52:51.724Z,65.35
2023-12-01T03:55:19.345Z,58.38
2023-12-01T03:57:47.193Z,63.35
2023-12-01T04:00:19.349Z,66.55
2023-12-01T04:02:49.124Z,70.95
2023-12-01T04:05:24.522Z,71.38
2023-12-01T04:07:55.900Z,61.97
2023-12-01T04:13:10.656Z,62.72
2023-12-01T04:15:38.224Z,61.75
2023-12-01T04:18:07.759Z,73.88
2023-12-01T04:20:40.255Z,63.22
2023-12-01T04:23:12.198Z,70.28
2023-12-01T04:25:41.163Z,66.70
2023-12-01T04:28:08.955Z,65.80
2023-12-01T04:30:36.662Z,71.07
2023-12-01T04:33:04.160Z,72.13
2023-12-01T04:35:33.419Z,70.70
2023-12-01T04:38:02.389Z,73.03
2023-12-01T04:40:30.933Z,65.75
2023-12-01T04:42:59.687Z,68.50
2023-12-01T04:45:29.375Z,65.25
2023-12-01T04:47:57.197Z,75.23
2023-12-01T04:50:29.193Z,79.32
2023-12-01T04:52:58.446Z,72.82
2023-12-01T04:55:27.640Z,71.20
2023-12-01T04:57:59.866Z,74.97
2023-12-01T05:00:28.650Z,64.35
2023-12-01T05:02:58.099Z,65.10
2023-12-01T05:05:30.202Z,69.47
2023-12-01T05:08:00.399Z,55.53
2023-12-01T05:12:58.021Z,50.40
2023-12-01T05:15:27.457Z,59.70
2023-12-01T05:18:06.641Z,49.78
2023-12-01T05:20:35.222Z,53.38
2023-12-01T05:25:54.880Z,52.67
2023-12-01T05:28:22.242Z,59.00
2023-12-01T05:30:49.524Z,52.85
2023-12-01T05:33:18.376Z,57.53
2023-12-01T05:35:47.537Z,58.67
2023-12-01T05:38:16.814Z,58.40
2023-12-01T05:40:44.221Z,59.10
2023-12-01T05:43:11.571Z,48.97
2023-12-01T05:45:39.081Z,59.28
2023-12-01T05:48:10.553Z,66.95
2023-12-01T05:50:39.989Z,62.00
2023-12-01T05:53:12.491Z,55.75
2023-12-01T05:55:39.915Z,54.30
2023-12-01T05:58:13.395Z,54.22
2023-12-01T06:00:42.292Z,57.10
2023-12-01T06:03:11.886Z,56.42
2023-12-01T06:05:39.977Z,54.40
2023-12-01T06:08:11.482Z,54.92
2023-12-01T06:10:40.283Z,53.13
2023-12-01T06:13:08.119Z,59.03
2023-12-01T06:15:35.666Z,117.50
2023-12-01T06:18:04.907Z,143.45
2023-12-01T06:20:33.359Z,83.80
2023-12-01T06:23:02.711Z,62.92
2023-12-01T06:25:33.312Z,61.40
2023-12-01T06:28:03.239Z,61.72
2023-12-01T06:30:36.616Z,64.63
2023-12-01T06:35:54.199Z,62.22
2023-12-01T06:38:21.422Z,200.38
2023-12-01T06:40:48.660Z,81.60
2023-12-01T06:43:16.217Z,350.15
2023-12-01T06:45:44.495Z,261.05
2023-12-01T06:48:12.509Z,76.40
2023-12-01T06:50:39.907Z,67.00
2023-12-01T06:53:08.457Z,61.03
2023-12-01T06:55:37.433Z,66.38
2023-12-01T06:58:04.874Z,65.10
2023-12-01T07:00:37.528Z,122.15
2023-12-01T07:03:08.116Z,123.32
2023-12-01T07:08:07.868Z,64.18
2023-12-01T07:10:35.139Z,62.95
2023-12-01T07:13:03.122Z,56.42
2023-12-01T07:15:31.078Z,61.90
2023-12-01T07:18:00.141Z,61.85
2023-12-01T07:20:27.648Z,57.97
2023-12-01T07:22:55.237Z,60.83
2023-12-01T07:25:25.014Z,60.00
2023-12-01T07:27:56.435Z,56.97
2023-12-01T07:30:24.046Z,56.87
2023-12-01T07:32:51.934Z,57.25
2023-12-01T07:35:19.181Z,61.20
2023-12-01T07:37:48.371Z,58.67
2023-12-01T07:40:23.500Z,58.15
2023-12-01T07:42:53.330Z,59.55
2023-12-01T07:45:21.267Z,58.97
2023-12-01T07:47:50.210Z,64.57
2023-12-01T07:50:18.940Z,65.07
2023-12-01T07:52:47.614Z,58.53
2023-12-01T07:55:14.970Z,60.58
2023-12-01T07:57:42.445Z,65.78
2023-12-01T08:00:18.204Z,60.40
2023-12-01T08:02:49.732Z,64.03
2023-12-01T08:05:18.314Z,63.17
2023-12-01T08:07:48.605Z,59.47
2023-12-01T08:10:19.017Z,65.43
2023-12-01T08:15:15.497Z,57.45
2023-12-01T08:17:45.255Z,57.28
2023-12-01T08:20:12.898Z,72.03
2023-12-01T08:22:41.034Z,74.00
2023-12-01T08:25:10.312Z,77.45
2023-12-01T08:27:38.802Z,78.45
2023-12-01T08:30:07.511Z,76.70
2023-12-01T08:32:35.116Z,85.82
2023-12-01T08:35:03.232Z,75.07
2023-12-01T08:37:32.453Z,68.25
2023-12-01T08:39:59.720Z,62.78
2023-12-01T08:42:27.011Z,78.10
2023-12-01T08:44:54.892Z,78.45
2023-12-01T08:47:22.637Z,93.53
2023-12-01T08:49:50.627Z,100.90
2023-12-01T08:52:18.728Z,88.85
2023-12-01T08:54:45.916Z,92.65
2023-12-01T08:57:13.249Z,84.55
2023-12-01T08:59:40.501Z,77.63
2023-12-01T09:02:12.060Z,76.43
2023-12-01T09:04:40.304Z,66.90
2023-12-01T09:07:08.250Z,64.15
2023-12-01T09:09:35.685Z,64.53
2023-12-01T09:12:03.303Z,63.38
2023-12-01T09:14:32.373Z,61.28
2023-12-01T09:16:59.763Z,68.38
2023-12-01T09:19:27.050Z,59.42
2023-12-01T09:21:54.389Z,64.97
2023-12-01T09:24:21.683Z,59.33
2023-12-01T09:26:49.770Z,59.17
2023-12-01T09:29:17.310Z,69.00
2023-12-01T09:31:49.056Z,65.75
2023-12-01T09:34:16.524Z,71.55
2023-12-01T09:36:44.486Z,71.60
2023-12-01T09:39:11.987Z,69.78
2023-12-01T09:41:40.465Z,67.45
2023-12-01T09:44:13.722Z,70.70
2023-12-01T09:46:44.681Z,74.65
2023-12-01T09:49:12.167Z,79.00
2023-12-01T09:51:40.667Z,72.75
2023-12-01T09:54:08.078Z,69.55
2023-12-01T09:56:36.278Z,77.63
2023-12-01T09:59:04.275Z,67.63
2023-12-01T10:01:31.721Z,73.32
2023-12-01T10:04:00.368Z,72.43
2023-12-01T10:06:28.643Z,72.75
2023-12-01T10:08:55.955Z,69.70
2023-12-01T10:11:27.263Z,72.32
2023-12-01T10:13:54.588Z,70.70
2023-12-01T10:16:25.050Z,70.05
2023-12-01T10:19:06.211Z,79.63
2023-12-01T10:21:47.567Z,79.15
2023-12-01T10:24:22.209Z,76.75
2023-12-01T10:26:51.351Z,71.93
2023-12-01T10:29:34.799Z,67.47
2023-12-01T10:32:04.042Z,73.32
2023-12-01T10:34:31.687Z,63.88
2023-12-01T10:36:59.203Z,59.60
2023-12-01T10:39:28.833Z,58.53
2023-12-01T10:42:02.390Z,59.83
2023-12-01T10:44:33.896Z,64.20
2023-12-01T10:47:18.150Z,62.33
2023-12-01T10:49:47.280Z,59.95
2023-12-01T10:52:16.371Z,61.25
2023-12-01T10:54:44.995Z,40.90
2023-12-01T11:00:31.619Z,44.25
2023-12-01T11:03:07.157Z,46.03
2023-12-01T11:05:38.015Z,45.30
2023-12-01T11:08:18.792Z,43.85
2023-12-01T11:11:13.219Z,35.90
2023-12-01T11:13:49.849Z,34.85
2023-12-01T11:16:18.177Z,41.13
2023-12-01T11:18:45.991Z,30.35
2023-12-01T11:21:17.228Z,34.25
2023-12-01T11:23:45.012Z,29.75
2023-12-01T11:26:12.963Z,30.15
2023-12-01T11:28:43.229Z,27.95
2023-12-01T11:31:21.136Z,30.65
2023-12-01T11:33:53.959Z,33.70
2023-12-01T11:36:32.688Z,35.28
2023-12-01T11:39:15.345Z,33.97
2023-12-01T11:41:49.894Z,36.47
2023-12-01T11:44:18.425Z,32.17
2023-12-01T11:46:48.932Z,26.48
2023-12-01T11:49:16.798Z,28.63
2023-12-01T11:51:46.660Z,30.65
2023-12-01T11:54:14.361Z,27.15
2023-12-01T11:56:50.980Z,23.20
2023-12-01T11:59:19.377Z,22.85
2023-12-01T12:01:47.913Z,25.25
2023-12-01T12:04:17.984Z,22.85
2023-12-01T12:06:46.300Z,27.92
2023-12-01T12:09:19.874Z,26.08
2023-12-01T12:11:52.160Z,26.00
2023-12-01T12:14:19.988Z,24.33
2023-12-01T12:16:47.564Z,29.10
2023-12-01T12:19:15.748Z,25.38
2023-12-01T12:21:43.370Z,24.73
2023-12-01T12:24:12.389Z,18.13
2023-12-01T12:26:41.005Z,21.45
2023-12-01T12:29:09.660Z,19.40
2023-12-01T12:31:38.709Z,22.85
2023-12-01T12:34:12.619Z,22.23
2023-12-01T12:36:44.636Z,20.95
2023-12-01T12:39:32.985Z,22.67
2023-12-01T12:42:04.780Z,24.67
2023-12-01T12:44:35.102Z,27.13
2023-12-01T12:47:07.025Z,26.00
2023-12-01T12:49:38.721Z,29.05
2023-12-01T12:52:07.791Z,23.73
2023-12-01T12:54:35.150Z,26.25
2023-12-01T12:57:04.269Z,27.65
2023-12-01T12:59:35.549Z,28.67
2023-12-01T13:02:02.873Z,24.17
2023-12-01T13:04:30.531Z,25.17
2023-12-01T13:06:58.045Z,22.48
2023-12-01T13:09:25.503Z,26.15
2023-12-01T13:11:52.807Z,27.40
2023-12-01T13:14:20.163Z,27.75
2023-12-01T13:16:54.970Z,28.35
2023-12-01T13:19:25.928Z,25.92
2023-12-01T13:21:55.999Z,25.27
2023-12-01T13:24:26.630Z,24.05
2023-12-01T13:26:54.637Z,29.70
2023-12-01T13:29:21.843Z,29.08
2023-12-01T13:31:52.290Z,28.42
2023-12-01T13:34:19.803Z,25.27
2023-12-01T13:36:49.555Z,24.00
2023-12-01T13:39:18.441Z,29.73
2023-12-01T13:41:46.444Z,25.15
2023-12-01T13:44:13.758Z,29.00
2023-12-01T13:46:41.544Z,23.55
2023-12-01T13:49:10.244Z,23.98
2023-12-01T13:51:37.482Z,24.63
2023-12-01T13:54:05.934Z,26.13
2023-12-01T13:56:34.783Z,26.50
2023-12-01T13:59:01.957Z,24.02
2023-12-01T14:01:29.529Z,24.98
2023-12-01T14:03:57.866Z,26.63
2023-12-01T14:06:25.172Z,27.20
2023-12-01T14:08:52.880Z,23.33
2023-12-01T14:11:20.098Z,25.23
2023-12-01T14:13:47.296Z,18.75
2023-12-01T14:16:14.888Z,24.67
2023-12-01T14:18:43.296Z,25.08
2023-12-01T14:21:10.852Z,22.05
2023-12-01T14:23:38.405Z,32.63
2023-12-01T14:26:10.887Z,25.85
2023-12-01T14:28:40.710Z,27.05
2023-12-01T14:31:10.918Z,30.05
2023-12-01T14:33:38.861Z,33.28
2023-12-01T14:36:07.668Z,30.60
2023-12-01T14:38:35.057Z,23.88
2023-12-01T14:41:02.320Z,25.75
2023-12-01T14:43:30.586Z,26.23
2023-12-01T14:45:58.019Z,23.00
2023-12-01T14:48:25.428Z,34.10
2023-12-01T14:50:52.981Z,26.92
2023-12-01T14:53:20.657Z,33.72
2023-12-01T14:55:47.939Z,28.02
2023-12-01T14:58:15.845Z,27.73
2023-12-01T15:03:28.835Z,34.08
2023-12-01T15:06:00.138Z,32.35
2023-12-01T15:08:27.389Z,45.95
2023-12-01T15:10:55.625Z,38.90
2023-12-01T15:13:24.688Z,37.22
2023-12-01T15:15:54.628Z,37.30
2023-12-01T15:18:22.078Z,33.35
2023-12-01T15:20:49.482Z,37.88
2023-12-01T15:23:16.748Z,40.28
2023-12-01T15:25:44.616Z,37.60
2023-12-01T15:28:11.940Z,45.95
2023-12-01T15:30:39.210Z,37.83
2023-12-01T15:33:06.668Z,39.53
2023-12-01T15:35:34.205Z,40.63
2023-12-01T15:38:01.741Z,39.63
2023-12-01T15:40:29.110Z,44.47
2023-12-01T15:42:56.365Z,40.63
2023-12-01T15:45:23.702Z,42.78
2023-12-01T15:47:51.099Z,43.70
2023-12-01T15:50:18.508Z,43.00
2023-12-01T15:52:46.030Z,32.60
2023-12-01T15:55:13.281Z,38.40
2023-12-01T15:57:40.558Z,42.70
2023-12-01T16:00:10.944Z,34.05
2023-12-01T16:02:38.882Z,37.30
2023-12-01T16:05:06.783Z,39.47
2023-12-01T16:07:35.109Z,41.20
2023-12-01T16:10:02.586Z,46.08
2023-12-01T16:12:31.366Z,36.38
2023-12-01T16:15:08.415Z,42.20
2023-12-01T16:17:42.618Z,40.83
2023-12-01T16:20:11.089Z,40.67
2023-12-01T16:22:38.322Z,44.20
2023-12-01T16:25:12.225Z,43.35
2023-12-01T16:27:39.608Z,52.72
2023-12-01T16:30:08.643Z,48.17
2023-12-01T16:32:36.178Z,43.00
2023-12-01T16:35:05.845Z,45.17
2023-12-01T16:37:34.238Z,56.75
2023-12-01T16:40:01.563Z,55.58
2023-12-01T16:42:28.960Z,59.42
2023-12-01T16:44:56.253Z,72.82
2023-12-01T16:47:26.370Z,62.97
2023-12-01T16:49:54.018Z,66.80
2023-12-01T16:52:24.838Z,46.53
2023-12-01T16:55:14.831Z,44.35
2023-12-01T16:57:43.478Z,148.88
2023-12-01T17:00:11.476Z,145.30
2023-12-01T17:02:41.923Z,65.95
2023-12-01T17:05:09.870Z,47.38
2023-12-01T17:07:37.087Z,44.03
2023-12-01T17:12:49.404Z,48.08
2023-12-01T17:18:01.938Z,48.85
2023-12-01T17:20:29.252Z,47.00
2023-12-01T17:22:56.923Z,44.35
2023-12-01T17:25:24.380Z,42.72
2023-12-01T17:27:51.600Z,40.35
2023-12-01T17:30:18.933Z,42.95
2023-12-01T17:32:46.248Z,50.35
2023-12-01T17:35:13.706Z,48.72
2023-12-01T17:37:41.014Z,42.45
2023-12-01T17:40:10.777Z,49.95
2023-12-01T17:42:40.258Z,43.58
2023-12-01T17:45:08.021Z,54.63
2023-12-01T17:47:35.231Z,49.08
2023-12-01T17:50:02.473Z,50.72
2023-12-01T17:52:29.741Z,57.72
2023-12-01T17:54:57.018Z,58.22
2023-12-01T17:57:24.634Z,43.58
2023-12-01T17:59:53.621Z,42.22
2023-12-01T18:02:21.404Z,48.03
2023-12-01T18:04:49.528Z,44.95
2023-12-01T18:07:17.781Z,50.35
2023-12-01T18:09:45.260Z,48.40
2023-12-01T18:12:14.801Z,50.05
2023-12-01T18:14:42.039Z,46.28
2023-12-01T18:17:09.425Z,48.28
2023-12-01T18:19:39.940Z,43.78
2023-12-01T18:22:07.282Z,41.65
2023-12-01T18:24:34.663Z,48.90
2023-12-01T18:27:01.970Z,53.78
2023-12-01T18:29:29.213Z,49.80
2023-12-01T18:31:56.749Z,56.85
2023-12-01T18:34:24.080Z,51.50
2023-12-01T18:36:53.084Z,56.22
2023-12-01T18:39:20.511Z,47.35
2023-12-01T18:41:50.042Z,49.13
2023-12-01T18:44:17.446Z,55.50
2023-12-01T18:49:32.378Z,51.67
2023-12-01T18:51:59.635Z,52.97
2023-12-01T18:54:27.702Z,49.20
2023-12-01T18:56:55.537Z,64.07
2023-12-01T18:59:22.877Z,56.00
2023-12-01T19:01:50.352Z,78.28
2023-12-01T19:04:17.823Z,56.45
2023-12-01T19:06:45.202Z,56.10
2023-12-01T19:09:12.882Z,47.88
2023-12-01T19:11:43.052Z,53.03
2023-12-01T19:14:13.247Z,44.78
2023-12-01T19:16:40.477Z,43.60
2023-12-01T19:19:08.749Z,47.00
2023-12-01T19:21:37.370Z,81.20
2023-12-01T19:24:06.817Z,53.85
2023-12-01T19:26:34.926Z,91.28
2023-12-01T19:29:02.324Z,45.20
2023-12-01T19:31:29.573Z,39.35
2023-12-01T19:33:56.904Z,38.88
2023-12-01T19:36:24.270Z,42.03
2023-12-01T19:38:51.605Z,39.08
2023-12-01T19:41:18.826Z,47.65
2023-12-01T19:43:46.183Z,49.83
2023-12-01T19:46:14.625Z,44.85
2023-12-01T19:48:43.110Z,66.40
2023-12-01T19:51:12.433Z,96.47
2023-12-01T19:53:39.848Z,54.08
2023-12-01T19:56:07.603Z,47.53
2023-12-01T19:58:36.981Z,47.22
2023-12-01T20:01:07.548Z,41.95
2023-12-01T20:06:02.542Z,55.72
2023-12-01T20:08:32.068Z,50.95
2023-12-01T20:11:01.943Z,60.80
2023-12-01T20:13:29.298Z,46.75
2023-12-01T20:15:56.638Z,46.72
2023-12-01T20:18:24.199Z,48.45
2023-12-01T20:20:51.671Z,54.03
2023-12-01T20:23:19.001Z,46.00
2023-12-01T20:25:46.296Z,41.80
2023-12-01T20:28:13.637Z,49.38
2023-12-01T20:30:40.956Z,44.88
2023-12-01T20:33:09.228Z,48.65
2023-12-01T20:35:37.604Z,44.63
2023-12-01T20:38:04.880Z,41.08
2023-12-01T20:40:32.102Z,42.65
2023-12-01T20:42:59.347Z,51.20
2023-12-01T20:45:26.681Z,46.15
2023-12-01T20:47:54.246Z,48.88
2023-12-01T20:50:21.749Z,45.45
2023-12-01T20:52:50.326Z,48.25
2023-12-01T20:55:19.260Z,45.25
2023-12-01T20:57:46.659Z,43.05
2023-12-01T21:00:14.332Z,49.50
2023-12-01T21:02:44.479Z,45.58
2023-12-01T21:07:39.967Z,38.00
2023-12-01T21:10:09.709Z,48.60
2023-12-01T21:12:37.511Z,50.10
2023-12-01T21:15:05.085Z,50.72
2023-12-01T21:17:32.504Z,44.60
2023-12-01T21:19:59.851Z,44.15
2023-12-01T21:22:28.151Z,43.08
2023-12-01T21:24:55.500Z,68.18
2023-12-01T21:27:22.828Z,58.53
2023-12-01T21:29:50.276Z,41.75
2023-12-01T21:32:17.601Z,106.20
2023-12-01T21:34:44.910Z,86.20
2023-12-01T21:37:12.486Z,66.80
2023-12-01T21:39:39.809Z,68.75
2023-12-01T21:42:07.322Z,44.38
2023-12-01T21:44:34.659Z,40.72
2023-12-01T21:47:02.099Z,44.10
2023-12-01T21:49:29.489Z,43.35
2023-12-01T21:51:57.074Z,47.50
2023-12-01T21:54:25.348Z,45.58
2023-12-01T21:56:52.623Z,44.38
2023-12-01T21:59:19.861Z,43.85
2023-12-01T22:01:47.140Z,39.92
2023-12-01T22:04:15.356Z,44.63
2023-12-01T22:06:44.393Z,40.20
2023-12-01T22:09:11.799Z,38.90
2023-12-01T22:11:57.787Z,39.67
2023-12-01T22:14:25.045Z,38.13
2023-12-01T22:16:52.285Z,46.88
2023-12-01T22:19:19.643Z,42.25
2023-12-01T22:21:47.050Z,46.03
2023-12-01T22:24:14.417Z,47.50
2023-12-01T22:26:43.151Z,50.40
2023-12-01T22:29:12.089Z,46.25
2023-12-01T22:31:42.891Z,41.90
2023-12-01T22:34:19.906Z,42.97
2023-12-01T22:36:50.648Z,38.65
2023-12-01T22:39:24.288Z,155.43
2023-12-01T22:44:46.273Z,36.60
2023-12-01T22:47:19.092Z,42.70
2023-12-01T22:49:48.293Z,32.35
2023-12-01T22:52:16.025Z,36.22
2023-12-01T22:54:43.261Z,37.40
2023-12-01T22:57:10.782Z,38.35
2023-12-01T22:59:38.036Z,44.72
2023-12-01T23:02:05.666Z,37.50
2023-12-01T23:04:33.439Z,44.88
2023-12-01T23:07:01.168Z,40.22
2023-12-01T23:09:28.743Z,44.83
2023-12-01T23:11:56.017Z,37.47
2023-12-01T23:14:23.377Z,41.67
2023-12-01T23:16:50.579Z,42.95
2023-12-01T23:19:18.098Z,47.05
2023-12-01T23:21:47.466Z,65.10
2023-12-01T23:24:16.144Z,57.80
2023-12-01T23:26:44.793Z,42.03
2023-12-01T23:29:13.280Z,37.75
2023-12-01T23:31:40.516Z,35.90
2023-12-01T23:34:07.874Z,41.35
2023-12-01T23:36:36.557Z,39.05
2023-12-01T23:39:04.225Z,35.00
2023-12-01T23:41:31.536Z,42.67
2023-12-01T23:44:01.827Z,38.83
2023-12-01T23:46:29.262Z,39.75
2023-12-01T23:48:56.598Z,41.25
2023-12-01T23:51:23.888Z,37.35
2023-12-01T23:53:55.620Z,41.70
2023-12-01T23:56:22.854Z,42.17
2023-12-01T23:58:50.128Z,40.38
